KAZO/AZO METAR and TAF weather

Enter ICAO airport designator
Station Type Date Time Source
KAZO METAR 2021/07/29 02:53 UTC NOAA

KAZO 290253Z AUTO 18003KT 10SM FEW036 26/22 A2998 RMK AO2 RAE0159 SLP144 P0000 60000 T02610222 53001


Station Type Date Time Source
KAZO Decoded METAR 2021/07/29 02:53 UTC NOAA

KALAMAZOO/BATTLE CREEK AIRPORT, MI, United States (KAZO) 42-14N 085-33W 272M
Jul 28, 2021 - 10:53 PM EDT / 2021.07.29 0253 UTC
Wind: from the S (180 degrees) at 3 MPH (3 KT):0
Visibility: 10 mile(s):0
Sky conditions: mostly clear
Precipitation last hour: A trace
Temperature: 79.0 F (26.1 C)
Dew Point: 72.0 F (22.2 C)
Relative Humidity: 79%
Pressure (altimeter): 29.98 in. Hg (1015 hPa)
Pressure tendency: 0.00 inches (0.1 hPa) higher than three hours ago
ob: KAZO 290253Z AUTO 18003KT 10SM FEW036 26/22 A2998 RMK AO2 RAE0159 SLP144 P0000 60000 T02610222 53001
cycle: 3

Station Type Date Time Source
KAZO TAF 2021/07/29 03:34 UTC NOAA

TAF
AMD KAZO 290231Z 2903/2924 00000KT P6SM VCSH SCT040 BKN120
FM290500 VRB03KT P6SM VCSH SCT027 BKN100
FM290700 29030G50KT 1/2SM +TSRA OVC015CB
FM290800 25008KT 3SM SHRA BKN040
FM291400 27009KT P6SM VCSH BKN017
FM291700 31009KT P6SM SCT017

Example: see airport list